Time;durP1;ratioP1;P1;durP2;ratioP2;P2;SDS_P1;SDS_P2;PMS_P1;PMS_P2;Temp;Humidity;BMP_temperature;BMP_pressure;BME280_temperature;BME280_humidity;BME280_pressure;Samples;Min_cycle;Max_cycle;Signal;HPM_P1;HPM_P2
2021/12/24 00:01:14;;;;;;;19.03;11.00;;;7.50;99.90;;;8.21;100.00;99353.63;5013831;28;20425;-82
2021/12/24 00:03:40;;;;;;;17.50;11.48;;;7.50;99.90;;;8.25;100.00;99357.22;5012823;28;20049;-80
2021/12/24 00:06:08;;;;;;;22.45;13.48;;;7.50;99.90;;;8.22;100.00;99348.88;5012370;28;20042;-82
2021/12/24 00:08:35;;;;;;;28.08;14.95;;;7.50;99.90;;;8.22;100.00;99351.63;5012465;28;20173;-82
2021/12/24 00:11:04;;;;;;;27.15;13.98;;;7.60;99.90;;;8.30;100.00;99347.81;5013838;28;20091;-81
2021/12/24 00:13:40;;;;;;;28.90;16.13;;;7.60;99.90;;;8.26;100.00;99350.50;5013487;28;20033;-82
2021/12/24 00:16:25;;;;;;;37.25;19.30;;;7.60;99.90;;;8.32;100.00;99343.47;5012288;28;20026;-80
2021/12/24 00:35:32;;;;;;;32.65;17.42;;;7.70;99.90;;;8.36;100.00;99337.97;5033062;28;20091;-81
2021/12/24 00:38:07;;;;;;;28.20;16.25;;;7.70;99.90;;;8.38;100.00;99330.84;5032786;28;20107;-80
2021/12/24 00:40:55;;;;;;;35.65;17.10;;;7.70;99.90;;;8.46;100.00;99337.31;5032724;28;20103;-81
2021/12/24 00:43:24;;;;;;;31.63;16.60;;;7.70;99.90;;;8.42;100.00;99328.91;5032566;28;20511;-80
2021/12/24 00:45:53;;;;;;;28.25;15.90;;;7.70;99.90;;;8.44;100.00;99331.34;5032112;28;20045;-80
2021/12/24 00:48:20;;;;;;;27.30;16.48;;;7.80;99.90;;;8.48;100.00;99337.75;5030689;28;20121;-82
2021/12/24 00:56:14;;;;;;;32.65;17.08;;;7.80;99.90;;;8.51;100.00;99341.78;5031840;28;20133;-80
2021/12/24 00:58:42;;;;;;;30.73;17.47;;;7.80;99.90;;;8.52;100.00;99333.03;5032385;28;20460;-79
2021/12/24 01:01:13;;;;;;;31.23;17.40;;;7.80;99.90;;;8.51;100.00;99336.97;5032062;28;20346;-82
2021/12/24 01:03:45;;;;;;;29.63;17.10;;;7.80;99.90;;;8.49;100.00;99325.44;5031721;28;20056;-82
2021/12/24 01:06:11;;;;;;;30.67;16.77;;;7.80;99.90;;;8.59;100.00;99327.56;5032063;28;20037;-81
2021/12/24 01:08:37;;;;;;;33.22;17.67;;;7.90;99.90;;;8.61;100.00;99322.41;5030715;28;20067;-83
2021/12/24 01:11:09;;;;;;;31.70;16.85;;;7.80;99.90;;;8.63;100.00;99328.44;5033414;28;20079;-85
2021/12/24 01:13:40;;;;;;;25.85;15.30;;;7.80;99.90;;;8.71;100.00;99329.31;5033189;28;20029;-84
2021/12/24 01:16:24;;;;;;;26.98;15.40;;;7.80;99.90;;;8.67;100.00;99318.13;5032935;28;20285;-83
2021/12/24 01:23:55;;;;;;;25.27;13.60;;;7.90;99.90;;;8.62;100.00;99318.47;5013131;28;20033;-80
2021/12/24 01:26:54;;;;;;;22.63;13.18;;;7.90;99.90;;;8.69;100.00;99321.34;5013106;28;20034;-82
2021/12/24 01:29:39;;;;;;;24.90;13.57;;;7.90;99.90;;;8.74;100.00;99311.84;5011937;28;20034;-82
2021/12/24 01:37:58;;;;;;;;;;;7.90;99.90;;;8.66;100.00;99310.97;4982219;28;20034;-81
2021/12/24 01:40:40;;;;;;;17.95;10.88;;;8.00;99.90;;;8.72;100.00;99314.22;5012494;28;19914;-82
2021/12/24 01:43:07;;;;;;;17.38;11.85;;;8.00;99.90;;;8.71;100.00;99298.69;5027514;28;20056;-82
2021/12/24 01:45:37;;;;;;;19.88;11.73;;;8.00;99.90;;;8.67;100.00;99303.44;5013339;28;20022;-82
2021/12/24 01:48:10;;;;;;;20.00;11.43;;;8.00;99.90;;;8.67;100.00;99309.00;5014558;28;20029;-80
2021/12/24 01:50:42;;;;;;;19.10;11.65;;;8.00;99.90;;;8.64;100.00;99310.53;5013279;28;20127;-81
2021/12/24 01:53:10;;;;;;;20.23;11.57;;;8.00;99.90;;;8.69;100.00;99298.28;5061073;23;20083;-78
2021/12/24 01:55:40;;;;;;;16.52;10.68;;;8.00;99.90;;;8.77;100.00;99297.16;5089121;28;20443;-80
2021/12/24 01:58:09;;;;;;;17.75;11.82;;;8.00;99.90;;;8.74;100.00;99300.72;5073679;28;20060;-77
2021/12/24 02:00:46;;;;;;;17.13;10.75;;;8.00;99.90;;;8.78;100.00;99290.44;5073515;28;20073;-79
2021/12/24 02:03:13;;;;;;;16.75;11.02;;;8.10;99.90;;;8.78;100.00;99301.56;5082958;28;20025;-79
2021/12/24 02:05:45;;;;;;;18.73;11.60;;;8.10;99.90;;;8.80;100.00;99293.63;5056151;28;20024;-77
2021/12/24 02:08:14;;;;;;;16.75;11.20;;;8.10;99.90;;;8.79;100.00;99301.22;5055762;28;20095;-80
2021/12/24 02:10:43;;;;;;;20.15;13.00;;;8.10;99.90;;;8.82;100.00;99289.31;5056453;28;20040;-78
2021/12/24 02:13:10;;;;;;;20.02;12.52;;;8.10;99.90;;;8.87;100.00;99286.19;5055900;28;20040;-79
2021/12/24 02:16:52;;;;;;;20.35;12.82;;;8.10;99.90;;;8.73;100.00;99274.84;5056610;28;20029;-79
2021/12/24 02:29:40;;;;;;;19.98;12.77;;;8.10;99.90;;;8.84;100.00;99275.81;5056732;28;20542;-80
2021/12/24 02:32:06;;;;;;;18.52;12.02;;;8.10;99.90;;;8.85;100.00;99284.97;5056536;28;20037;-78
2021/12/24 02:34:35;;;;;;;18.05;11.63;;;8.20;99.90;;;8.85;100.00;99271.03;5056631;28;20032;-78
2021/12/24 02:37:04;;;;;;;20.55;13.10;;;8.20;99.90;;;8.94;100.00;99272.34;5054886;28;20117;-79
2021/12/24 02:39:37;;;;;;;22.70;13.50;;;8.20;99.90;;;8.86;100.00;99265.06;5056398;28;20053;-78
2021/12/24 02:42:22;;;;;;;25.65;14.38;;;8.20;99.90;;;8.89;100.00;99275.44;5054824;28;20025;-78
2021/12/24 02:44:51;;;;;;;23.58;14.55;;;8.20;99.90;;;8.92;100.00;99260.00;5054933;28;20491;-79
2021/12/24 02:55:16;;;;;;;31.10;18.02;;;8.20;99.90;;;8.86;100.00;99251.16;5056408;28;20055;-81
2021/12/24 02:57:44;;;;;;;28.15;17.88;;;8.20;99.90;;;8.90;100.00;99249.22;5056055;28;20033;-79
2021/12/24 03:00:25;;;;;;;30.88;19.85;;;8.20;99.90;;;8.91;100.00;99247.25;5054504;28;20385;-79
2021/12/24 03:02:51;;;;;;;29.15;18.55;;;8.20;99.90;;;8.98;100.00;99247.31;5054600;28;20033;-80
2021/12/24 03:05:20;;;;;;;31.65;18.50;;;8.20;99.90;;;8.97;100.00;99242.94;5056159;28;20407;-78
2021/12/24 03:07:49;;;;;;;33.63;20.10;;;8.20;99.90;;;8.96;100.00;99249.66;5055257;28;20515;-78
2021/12/24 03:10:20;;;;;;;35.88;20.08;;;8.20;99.90;;;8.97;100.00;99245.72;5054534;28;20079;-80
2021/12/24 03:12:52;;;;;;;38.70;21.05;;;8.20;99.90;;;8.98;100.00;99241.75;5053822;28;20029;-79
2021/12/24 03:15:23;;;;;;;41.20;23.20;;;8.30;99.90;;;9.02;100.00;99241.81;5056017;28;20029;-79
2021/12/24 03:17:53;;;;;;;36.50;20.88;;;8.30;99.90;;;9.00;100.00;99242.97;5055579;28;20025;-82
2021/12/24 03:20:20;;;;;;;38.33;22.33;;;8.30;99.90;;;9.02;100.00;99232.25;5058997;28;20025;-78
2021/12/24 03:25:39;;;;;;;37.10;21.20;;;8.30;99.90;;;9.03;100.00;99244.19;5015037;28;20060;-79
2021/12/24 03:28:08;;;;;;;34.63;20.23;;;8.30;99.90;;;9.00;100.00;99250.53;5042735;28;20085;-79
2021/12/24 03:30:34;;;;;;;32.45;19.35;;;8.30;99.90;;;9.07;100.00;99245.03;5042687;28;20075;-78
2021/12/24 03:33:00;;;;;;;37.03;20.42;;;8.30;99.90;;;9.02;100.00;99234.25;5043362;28;20025;-79
2021/12/24 03:35:26;;;;;;;31.42;19.00;;;8.40;99.90;;;8.97;100.00;99235.38;5044988;28;20045;-80
2021/12/24 03:37:52;;;;;;;26.58;17.77;;;8.30;99.90;;;9.08;100.00;99229.13;5047294;28;20045;-80
2021/12/24 03:40:18;;;;;;;31.60;17.48;;;8.30;99.90;;;9.09;100.00;99233.50;5044178;28;20034;-79
2021/12/24 03:42:44;;;;;;;30.23;18.27;;;8.30;99.90;;;9.08;100.00;99229.94;5039071;28;20036;-78
2021/12/24 03:45:25;;;;;;;26.85;18.35;;;8.30;99.90;;;9.04;100.00;99225.50;5034265;28;20519;-79
2021/12/24 03:47:57;;;;;;;26.70;16.63;;;8.30;99.90;;;8.98;100.00;99231.44;5033249;28;20033;-78
2021/12/24 03:50:39;;;;;;;26.95;17.92;;;8.30;99.90;;;8.97;100.00;99227.03;5035767;28;20049;-78
2021/12/24 03:54:55;;;;;;;28.60;17.80;;;8.40;99.90;;;9.07;100.00;99239.47;5034816;28;20052;-79
2021/12/24 03:55:57;;;;;;;29.73;18.90;;;8.40;99.90;;;9.13;100.00;99245.47;5034472;28;20072;-77
2021/12/24 03:58:25;;;;;;;35.83;20.13;;;8.40;99.90;;;9.09;100.00;99239.06;5035126;28;20029;-77
2021/12/24 04:00:51;;;;;;;32.33;19.10;;;8.40;99.90;;;9.12;100.00;99239.09;5034096;28;20029;-77
2021/12/24 04:03:18;;;;;;;31.52;20.33;;;8.40;99.90;;;9.10;100.00;99249.84;5034331;28;20022;-78
2021/12/24 04:05:47;;;;;;;38.25;21.58;;;8.40;99.90;;;9.11;100.00;99240.31;5034293;28;20400;-78
2021/12/24 04:08:15;;;;;;;32.33;20.83;;;8.40;99.90;;;9.13;100.00;99251.06;5032666;28;20026;-80
2021/12/24 04:10:42;;;;;;;39.38;22.58;;;8.40;99.90;;;9.05;100.00;99250.19;5033469;28;20029;-80
2021/12/24 04:13:14;;;;;;;42.55;23.92;;;8.40;99.90;;;9.18;100.00;99250.72;5034779;28;20033;-77
2021/12/24 04:15:47;;;;;;;44.33;25.02;;;8.50;99.90;;;9.18;100.00;99257.09;5032939;28;20089;-78
2021/12/24 04:18:34;;;;;;;46.45;25.33;;;8.50;99.90;;;9.13;100.00;99246.28;5033775;28;20061;-78
2021/12/24 04:26:40;;;;;;;58.28;27.83;;;8.50;99.90;;;9.14;100.00;99253.47;5034693;28;20040;-77
2021/12/24 04:29:08;;;;;;;53.45;29.00;;;8.50;99.90;;;9.14;100.00;99247.09;5034666;28;20087;-80
2021/12/24 04:34:25;;;;;;;54.65;28.92;;;8.50;99.90;;;9.21;100.00;99250.75;5034305;28;20029;-78
2021/12/24 05:02:17;;;;;;;50.08;28.23;;;8.50;99.90;;;9.25;100.00;99247.97;5032901;28;20107;-79
2021/12/24 05:04:50;;;;;;;45.30;27.35;;;8.50;99.90;;;9.30;100.00;99251.25;5048354;28;20021;-77
2021/12/24 05:09:54;;;;;;;48.78;28.23;;;8.50;99.90;;;9.26;100.00;99261.53;5033416;28;20103;-78
2021/12/24 05:12:20;;;;;;;47.50;28.02;;;8.50;99.90;;;9.19;100.00;99255.09;5048196;28;20033;-78
2021/12/24 05:14:45;;;;;;;55.92;29.20;;;8.50;99.90;;;9.24;100.00;99257.53;5033281;28;20449;-78
2021/12/24 05:22:32;;;;;;;53.30;29.90;;;8.50;99.90;;;9.22;100.00;99259.91;5033415;28;20052;-78
2021/12/24 05:25:01;;;;;;;54.42;29.10;;;8.50;99.90;;;9.23;100.00;99259.53;5032930;28;20025;-78
2021/12/24 05:27:28;;;;;;;53.60;30.92;;;8.50;99.90;;;9.22;100.00;99262.69;5033619;28;20029;-77
2021/12/24 05:29:58;;;;;;;47.55;29.92;;;8.50;99.90;;;9.24;100.00;99257.53;5033439;28;20431;-78
2021/12/24 05:32:27;;;;;;;51.20;29.73;;;8.50;99.90;;;9.27;100.00;99263.16;5033316;28;20041;-80
2021/12/24 05:34:52;;;;;;;49.83;29.85;;;8.50;99.90;;;9.33;100.00;99255.25;5032695;28;20408;-78
2021/12/24 05:37:18;;;;;;;53.33;31.38;;;8.50;99.90;;;9.27;100.00;99252.00;5032528;28;20029;-79
2021/12/24 05:39:44;;;;;;;48.55;29.45;;;8.50;99.90;;;9.31;100.00;99250.03;5032864;28;20037;-77
2021/12/24 05:42:10;;;;;;;53.55;30.15;;;8.50;99.90;;;9.26;100.00;99252.38;5032534;28;20026;-79
2021/12/24 05:44:36;;;;;;;53.47;30.38;;;8.50;99.90;;;9.23;100.00;99269.88;5032639;28;20039;-78
2021/12/24 05:47:02;;;;;;;47.58;29.23;;;8.50;99.90;;;9.31;100.00;99265.97;5031784;28;20091;-79
2021/12/24 05:49:28;;;;;;;48.65;29.77;;;8.50;99.90;;;9.34;100.00;99265.22;5032918;28;20036;-79
2021/12/24 05:51:54;;;;;;;52.70;28.63;;;8.50;99.90;;;9.29;100.00;99268.34;5033456;28;20030;-78
2021/12/24 05:54:20;;;;;;;49.00;29.92;;;8.50;99.90;;;9.25;100.00;99259.13;5049986;28;20034;-80
2021/12/24 05:56:51;;;;;;;55.95;30.73;;;8.50;99.90;;;9.34;100.00;99271.56;5052940;28;20563;-78
2021/12/24 05:59:17;;;;;;;46.22;29.13;;;8.50;99.90;;;9.30;100.00;99267.16;5048950;28;20026;-78
2021/12/24 06:01:43;;;;;;;53.63;32.22;;;8.50;99.90;;;9.19;100.00;99263.44;5033161;28;20034;-78
2021/12/24 06:04:09;;;;;;;52.97;30.13;;;8.50;99.90;;;9.23;100.00;99267.88;5030505;28;20026;-77
2021/12/24 06:06:41;;;;;;;55.38;30.17;;;8.50;99.90;;;9.29;100.00;99287.84;5030888;28;20094;-78
2021/12/24 06:09:10;;;;;;;53.20;31.00;;;8.50;99.90;;;9.31;100.00;99277.91;5032308;28;20029;-77
2021/12/24 06:11:38;;;;;;;54.60;31.17;;;8.50;99.90;;;9.38;100.00;99291.91;5032403;28;20100;-79
2021/12/24 06:14:10;;;;;;;48.58;30.05;;;8.50;99.90;;;9.24;100.00;99274.25;5032560;28;20113;-79
2021/12/24 06:16:37;;;;;;;56.40;32.00;;;8.50;99.90;;;9.24;100.00;99290.97;5032357;28;20029;-78
2021/12/24 06:19:04;;;;;;;55.30;31.70;;;8.50;99.90;;;9.22;100.00;99287.75;5030895;28;20026;-80
2021/12/24 06:21:30;;;;;;;58.55;31.83;;;8.50;99.90;;;9.22;100.00;99282.19;5032004;28;20503;-79
2021/12/24 06:24:00;;;;;;;54.45;31.27;;;8.50;99.90;;;9.24;100.00;99288.19;5030599;28;20083;-78
2021/12/24 06:26:26;;;;;;;59.10;32.45;;;8.50;99.90;;;9.26;100.00;99292.19;5031195;28;20443;-80
2021/12/24 06:28:51;;;;;;;54.35;32.78;;;8.50;99.90;;;9.27;100.00;99284.63;5033710;28;20030;-78
2021/12/24 06:31:17;;;;;;;57.85;33.55;;;8.50;99.90;;;9.20;100.00;99295.69;5033254;28;20480;-78
2021/12/24 06:33:43;;;;;;;55.72;31.95;;;8.50;99.90;;;9.29;100.00;99293.41;5032762;28;20145;-81
2021/12/24 06:36:09;;;;;;;61.75;34.45;;;8.50;99.90;;;9.23;100.00;99300.50;5033662;28;20025;-81
2021/12/24 06:38:35;;;;;;;55.95;31.98;;;8.50;99.90;;;9.29;100.00;99301.75;5031741;28;20539;-80
2021/12/24 06:41:04;;;;;;;56.15;32.97;;;8.50;99.90;;;9.24;100.00;99302.13;5031561;28;20488;-80
2021/12/24 06:43:30;;;;;;;62.72;35.92;;;8.50;99.90;;;9.22;100.00;99287.75;5033215;28;20105;-80
2021/12/24 06:45:57;;;;;;;65.40;34.85;;;8.50;99.90;;;9.23;100.00;99286.56;5031212;28;20603;-79
2021/12/24 06:48:23;;;;;;;56.28;33.00;;;8.50;99.90;;;9.28;100.00;99294.59;5035764;28;20087;-79
2021/12/24 06:50:50;;;;;;;60.88;34.55;;;8.50;99.90;;;9.24;100.00;99296.53;5036773;28;20468;-79
2021/12/24 06:53:16;;;;;;;56.80;32.50;;;8.50;99.90;;;9.30;100.00;99300.59;5034839;28;20496;-79
2021/12/24 06:55:42;;;;;;;59.70;34.10;;;8.50;99.90;;;9.21;100.00;99302.88;5034992;28;20049;-79
2021/12/24 06:58:08;;;;;;;58.63;34.03;;;8.50;99.90;;;9.30;100.00;99290.25;5035719;28;20033;-78
2021/12/24 07:00:36;;;;;;;57.20;31.33;;;8.50;99.90;;;9.30;100.00;99295.00;5035651;28;20048;-80
2021/12/24 07:03:02;;;;;;;57.72;33.28;;;8.50;99.90;;;9.29;100.00;99288.63;5035153;28;20021;-80
2021/12/24 07:05:28;;;;;;;61.78;33.00;;;8.50;99.90;;;9.30;100.00;99300.59;5035745;28;20033;-79
2021/12/24 07:07:59;;;;;;;53.78;29.73;;;8.50;99.90;;;9.30;100.00;99300.59;5034190;28;20025;-79
2021/12/24 07:10:29;;;;;;;53.30;29.90;;;8.50;99.90;;;9.35;100.00;99301.03;5033725;28;20037;-77
2021/12/24 07:12:55;;;;;;;57.13;30.10;;;8.50;99.90;;;9.34;100.00;99296.63;5033526;28;20026;-78
2021/12/24 07:15:22;;;;;;;45.75;27.73;;;8.50;99.90;;;9.29;100.00;99294.22;5033787;28;20065;-79
2021/12/24 07:17:48;;;;;;;50.70;28.00;;;8.50;99.90;;;9.28;100.00;99289.03;5035090;28;20087;-78
2021/12/24 07:20:20;;;;;;;54.97;28.05;;;8.50;99.90;;;9.30;100.00;99297.81;5035050;28;20421;-78
2021/12/24 07:22:45;;;;;;;53.63;26.67;;;8.60;99.90;;;9.28;100.00;99292.59;5047222;28;20049;-79
2021/12/24 07:25:15;;;;;;;55.08;29.67;;;8.50;99.90;;;9.27;100.00;99299.38;5054801;28;20025;-79
2021/12/24 07:27:41;;;;;;;51.88;30.00;;;8.50;99.90;;;9.27;100.00;99298.56;5054627;28;20029;-78
2021/12/24 07:30:12;;;;;;;56.28;30.25;;;8.50;99.90;;;9.33;100.00;99303.41;5054580;28;20025;-79
2021/12/24 07:32:41;;;;;;;56.13;32.05;;;8.50;99.90;;;9.28;100.00;99303.75;5054661;28;20545;-78
2021/12/24 07:35:09;;;;;;;56.35;31.35;;;8.50;99.90;;;9.30;100.00;99306.16;5053727;28;20037;-79
2021/12/24 07:37:35;;;;;;;57.47;30.75;;;8.60;99.90;;;9.24;100.00;99314.06;5053641;28;20110;-79
2021/12/24 07:40:03;;;;;;;58.95;30.83;;;8.60;99.90;;;9.25;100.00;99314.84;5055474;28;20025;-78
2021/12/24 07:42:30;;;;;;;56.28;30.50;;;8.60;99.90;;;9.30;100.00;99318.13;5054123;28;20029;-79
2021/12/24 07:44:56;;;;;;;55.17;29.67;;;8.60;99.90;;;9.37;100.00;99320.16;5053310;28;20387;-78
2021/12/24 07:47:28;;;;;;;50.30;27.77;;;8.60;99.90;;;9.32;100.00;99324.09;5054472;28;20021;-78
2021/12/24 07:50:14;;;;;;;56.60;29.13;;;8.50;99.90;;;9.29;100.00;99329.63;5053295;28;20025;-79
2021/12/24 07:52:40;;;;;;;51.05;28.77;;;8.50;99.90;;;9.31;100.00;99325.25;5078259;22;20419;-86
2021/12/24 07:55:10;;;;;;;52.75;27.45;;;8.50;99.90;;;9.36;100.00;99330.50;5097298;28;20086;-83
2021/12/24 07:57:39;;;;;;;49.83;28.17;;;8.50;99.90;;;9.34;100.00;99329.28;5094565;28;20047;-83
2021/12/24 08:00:08;;;;;;;57.92;30.15;;;8.60;99.90;;;9.35;100.00;99319.72;5086087;28;20033;-83
2021/12/24 08:02:36;;;;;;;62.08;28.02;;;8.60;99.90;;;9.39;100.00;99318.59;5057571;28;20078;-85
2021/12/24 08:05:02;;;;;;;49.83;26.60;;;8.60;99.90;;;9.34;100.00;99318.94;5057300;28;20435;-83
2021/12/24 08:07:28;;;;;;;49.13;27.85;;;8.60;99.90;;;9.40;100.00;99322.19;5057852;28;20068;-82
2021/12/24 08:09:54;;;;;;;49.03;28.35;;;8.60;99.90;;;9.42;100.00;99319.81;5058199;28;20041;-84
2021/12/24 08:12:20;;;;;;;48.05;27.95;;;8.70;99.90;;;9.43;100.00;99322.22;5057053;28;20163;-84
2021/12/24 08:14:47;;;;;;;56.13;28.50;;;8.70;99.90;;;9.40;100.00;99323.00;5057323;28;20143;-82
2021/12/24 08:17:14;;;;;;;50.85;27.67;;;8.70;99.90;;;9.47;100.00;99319.50;5057417;28;20400;-84
2021/12/24 08:19:40;;;;;;;49.70;27.38;;;8.80;99.90;;;9.45;100.00;99316.25;5074696;28;20029;-85
2021/12/24 08:22:06;;;;;;;47.83;26.42;;;8.70;99.90;;;9.38;100.00;99319.78;5058316;28;20025;-83
2021/12/24 08:24:32;;;;;;;48.70;26.70;;;8.70;99.90;;;9.32;100.00;99307.38;5057607;28;20079;-83
2021/12/24 08:26:59;;;;;;;52.30;28.42;;;8.70;99.90;;;9.31;100.00;99299.41;5057887;28;20029;-81
2021/12/24 08:29:25;;;;;;;48.97;28.52;;;8.70;99.90;;;9.32;100.00;99296.22;5057157;28;20036;-81
2021/12/24 08:31:52;;;;;;;52.53;28.65;;;8.70;99.90;;;9.35;100.00;99300.22;5056142;28;20033;-86
2021/12/24 08:34:21;;;;;;;57.83;30.02;;;8.60;99.90;;;9.23;100.00;99295.75;5057010;28;20036;-80
2021/12/24 08:36:52;;;;;;;55.30;27.67;;;8.60;99.90;;;9.36;100.00;99296.28;5056460;28;20075;-84
2021/12/24 08:39:21;;;;;;;46.33;26.33;;;8.70;99.90;;;9.42;100.00;99303.09;5055675;28;20029;-85
2021/12/24 08:41:54;;;;;;;46.80;26.65;;;8.60;99.90;;;9.33;100.00;99297.03;5055174;28;20025;-84
2021/12/24 08:44:23;;;;;;;45.53;25.70;;;8.60;99.90;;;9.36;100.00;99291.50;5056424;28;20075;-84
2021/12/24 08:46:50;;;;;;;56.13;27.30;;;8.60;99.90;;;9.32;100.00;99298.22;5056354;28;20047;-82
2021/12/24 08:49:18;;;;;;;41.08;25.02;;;8.60;99.90;;;9.30;100.00;99290.25;5053455;28;20033;-85
2021/12/24 08:51:44;;;;;;;39.72;23.42;;;8.60;99.90;;;9.37;100.00;99297.88;5053984;28;20029;-83
2021/12/24 08:54:10;;;;;;;45.60;24.80;;;8.60;99.90;;;9.28;100.00;99300.19;5053506;28;20067;-82
2021/12/24 08:56:36;;;;;;;52.10;24.33;;;8.70;99.90;;;9.38;100.00;99302.25;5053561;28;20463;-82
2021/12/24 08:59:03;;;;;;;37.08;24.15;;;8.70;99.90;;;9.28;100.00;99284.25;5053782;28;20033;-82
2021/12/24 09:01:29;;;;;;;42.38;23.65;;;8.70;99.90;;;9.44;100.00;99284.00;5054060;28;20032;-83
2021/12/24 09:03:54;;;;;;;39.25;22.17;;;8.70;99.90;;;9.41;100.00;99291.13;5054283;28;20037;-85
2021/12/24 09:06:20;;;;;;;47.92;25.25;;;8.70;99.90;;;9.43;100.00;99283.22;5055338;28;20036;-79
2021/12/24 09:08:46;;;;;;;45.35;23.63;;;8.70;99.90;;;9.53;100.00;99287.28;5054997;28;20032;-84
2021/12/24 09:11:12;;;;;;;42.75;23.48;;;8.70;99.90;;;9.50;100.00;99299.22;5053594;28;20033;-84
2021/12/24 09:13:38;;;;;;;42.25;21.88;;;8.70;99.90;;;9.54;100.00;99288.88;5052659;28;20411;-83
2021/12/24 09:16:05;;;;;;;43.92;22.50;;;8.70;99.90;;;9.51;100.00;99295.22;5052510;28;20558;-83
2021/12/24 09:18:31;;;;;;;42.45;21.73;;;8.70;99.90;;;9.55;100.00;99296.06;5053119;28;20120;-83
2021/12/24 09:21:01;;;;;;;41.58;21.77;;;8.70;99.90;;;9.47;100.00;99274.91;5053116;28;20392;-85
2021/12/24 09:23:27;;;;;;;49.10;23.23;;;8.70;99.90;;;9.55;100.00;99282.13;5035440;28;20025;-85
2021/12/24 09:25:53;;;;;;;41.78;20.88;;;8.80;99.90;;;9.60;100.00;99287.34;5032735;28;20072;-83
2021/12/24 09:28:19;;;;;;;48.65;20.77;;;8.80;99.90;;;9.58;100.00;99288.91;5032874;28;20060;-85
2021/12/24 09:30:46;;;;;;;43.55;19.77;;;8.80;99.90;;;9.53;100.00;99265.78;5033320;28;20030;-83
2021/12/24 09:33:13;;;;;;;36.78;18.95;;;8.80;99.90;;;9.56;100.00;99280.16;5034118;28;20122;-85
2021/12/24 09:35:39;;;;;;;40.97;20.13;;;8.90;99.90;;;9.53;100.00;99267.78;5035288;28;20473;-82
2021/12/24 09:38:05;;;;;;;36.53;19.85;;;8.80;99.90;;;9.53;100.00;99274.13;5033610;28;20040;-84
2021/12/24 09:40:33;;;;;;;40.40;20.10;;;8.90;99.90;;;9.60;100.00;99267.81;5035700;28;20500;-84
2021/12/24 09:43:00;;;;;;;35.97;19.05;;;8.90;99.90;;;9.65;100.00;99277.81;5035703;28;20493;-85
2021/12/24 09:45:26;;;;;;;44.75;20.63;;;8.90;99.90;;;9.60;100.00;99272.63;5035732;28;20034;-85
2021/12/24 09:47:52;;;;;;;42.42;19.55;;;8.90;99.90;;;9.59;100.00;99277.38;5043218;28;20638;-85
2021/12/24 09:50:25;;;;;;;43.28;21.27;;;8.90;99.90;;;9.67;100.00;99275.44;5044532;28;20041;-84
2021/12/24 09:52:53;;;;;;;35.78;21.13;;;8.80;99.90;;;9.60;100.00;99272.63;5039345;28;20065;-85
2021/12/24 09:55:25;;;;;;;44.95;20.42;;;8.80;99.90;;;9.53;100.00;99279.72;5034396;28;20507;-86
2021/12/24 09:57:53;;;;;;;43.72;22.73;;;8.80;99.90;;;9.52;100.00;99277.31;5035060;28;20034;-82
2021/12/24 10:00:26;;;;;;;45.40;22.02;;;8.80;99.90;;;9.57;100.00;99273.41;5035165;28;20040;-82
2021/12/24 10:02:58;;;;;;;43.33;21.80;;;8.80;99.90;;;9.60;100.00;99267.81;5034633;28;20507;-85
2021/12/24 10:05:40;;;;;;;39.60;21.00;;;8.80;99.90;;;9.56;100.00;99271.78;5035461;28;20421;-86
2021/12/24 10:08:21;;;;;;;38.08;20.08;;;8.80;99.90;;;9.61;100.00;99268.63;5034925;28;20469;-87
2021/12/24 10:10:53;;;;;;;40.53;20.83;;;8.80;99.90;;;9.64;100.00;99262.28;5039720;28;20511;-82
2021/12/24 10:13:38;;;;;;;42.13;20.38;;;8.90;99.90;;;9.60;100.00;99273.41;5034363;28;20037;-84
2021/12/24 10:16:17;;;;;;;41.95;21.88;;;8.90;99.90;;;9.76;100.00;99273.94;5033445;28;20064;-82
2021/12/24 10:18:49;;;;;;;38.55;19.08;;;8.90;99.90;;;9.69;100.00;99271.13;5033294;28;20029;-83
2021/12/24 10:21:27;;;;;;;44.42;20.70;;;8.90;99.90;;;9.60;100.00;99269.84;5033193;28;20124;-82
2021/12/24 10:24:04;;;;;;;47.60;20.58;;;8.90;99.90;;;9.69;100.00;99276.69;5056991;28;20025;-83
2021/12/24 10:26:43;;;;;;;36.20;19.42;;;8.90;99.90;;;9.60;100.00;99265.03;5058320;28;20123;-83
2021/12/24 10:29:38;;;;;;;36.38;18.45;;;8.90;99.90;;;9.61;100.00;99277.78;5059065;28;20021;-85
2021/12/24 10:32:15;;;;;;;40.63;18.30;;;8.90;99.90;;;9.64;100.00;99271.44;5054304;28;20045;-86
2021/12/24 10:34:45;;;;;;;36.03;17.92;;;8.90;99.90;;;9.65;100.00;99275.84;5063950;28;20116;-83
2021/12/24 10:37:24;;;;;;;39.42;18.25;;;8.90;99.90;;;9.69;100.00;99273.91;5058641;28;20029;-82
2021/12/24 10:39:59;;;;;;;40.22;18.33;;;8.90;99.90;;;9.67;100.00;99273.47;5057143;28;20045;-81
2021/12/24 10:42:40;;;;;;;36.63;19.73;;;8.90;99.90;;;9.56;100.00;99280.16;5057725;28;20025;-84
2021/12/24 10:45:26;;;;;;;44.33;19.95;;;8.90;99.90;;;9.64;100.00;99279.81;5058523;28;20025;-85
2021/12/24 10:47:52;;;;;;;43.75;19.63;;;8.90;99.90;;;9.68;100.00;99285.41;5057688;28;20025;-85
2021/12/24 10:50:30;;;;;;;42.63;20.15;;;8.90;99.90;;;9.58;100.00;99266.59;5057641;28;20101;-83
2021/12/24 10:55:53;;;;;;;34.20;19.80;;;8.80;99.90;;;9.66;100.00;99268.28;5058968;28;20059;-83
2021/12/24 10:58:24;;;;;;;47.33;20.75;;;8.80;99.90;;;9.46;100.00;99262.13;5056900;28;20052;-81
2021/12/24 11:00:59;;;;;;;41.53;19.00;;;8.80;99.90;;;9.46;100.00;99268.50;5060026;28;20533;-81
2021/12/24 11:03:32;;;;;;;41.47;18.58;;;8.70;99.90;;;9.51;100.00;99275.72;5057827;28;20053;-83
2021/12/24 11:06:13;;;;;;;41.80;20.58;;;8.70;99.90;;;9.35;100.00;99275.97;5056213;28;20086;-84
2021/12/24 11:08:40;;;;;;;42.35;18.38;;;8.60;99.90;;;9.41;100.00;99281.97;5056302;28;20052;-84
2021/12/24 11:11:15;;;;;;;40.88;17.88;;;8.60;99.90;;;9.33;100.00;99283.09;5057770;28;20033;-82
2021/12/24 11:13:46;;;;;;;36.15;18.13;;;8.60;99.90;;;9.36;100.00;99276.75;5056987;28;20090;-81
2021/12/24 11:16:18;;;;;;;37.75;19.08;;;8.60;99.90;;;9.45;100.00;99266.91;5056669;28;20033;-83
2021/12/24 11:18:57;;;;;;;33.88;17.38;;;8.70;99.90;;;9.53;100.00;99265.78;5056095;28;20490;-82
2021/12/24 11:21:28;;;;;;;42.10;17.80;;;8.80;99.90;;;9.70;100.00;99281.06;5056267;28;20044;-83
2021/12/24 11:23:55;;;;;;;31.27;16.38;;;8.90;99.90;;;9.71;100.00;99273.50;5073060;28;20032;-82
2021/12/24 11:26:28;;;;;;;34.78;17.50;;;9.00;99.90;;;9.73;100.00;99269.13;5057633;28;20029;-84
2021/12/24 11:28:57;;;;;;;40.47;16.77;;;9.00;99.90;;;9.90;100.00;99278.84;5056579;28;20032;-81
2021/12/24 11:31:32;;;;;;;36.20;15.82;;;9.00;99.90;;;9.94;100.00;99274.09;5055647;28;20071;-82
2021/12/24 11:34:00;;;;;;;29.92;16.38;;;9.10;99.90;;;9.86;100.00;99276.00;5055785;28;20031;-84
2021/12/24 11:36:30;;;;;;;29.50;15.70;;;9.10;99.90;;;9.84;100.00;99272.81;5056281;28;20492;-83
2021/12/24 11:39:02;;;;;;;33.90;14.98;;;9.10;99.90;;;9.80;100.00;99276.75;5057709;28;20037;-83
2021/12/24 11:41:32;;;;;;;27.77;13.88;;;9.00;99.90;;;9.63;100.00;99278.22;5057138;28;20033;-82
2021/12/24 11:44:06;;;;;;;32.30;14.38;;;8.90;99.90;;;9.61;100.00;99280.59;5056859;28;20029;-82
2021/12/24 11:46:41;;;;;;;30.42;14.60;;;8.90;99.90;;;9.64;100.00;99281.78;5057457;28;20040;-83
2021/12/24 11:49:08;;;;;;;27.02;15.10;;;8.90;99.90;;;9.68;100.00;99265.91;5057994;28;20051;-82
2021/12/24 11:51:42;;;;;;;32.88;14.82;;;8.90;99.90;;;9.71;100.00;99276.28;5058521;28;20433;-83
2021/12/24 11:54:10;;;;;;;36.88;16.75;;;8.90;99.90;;;9.68;100.00;99268.69;5058889;28;20037;-84
2021/12/24 11:56:54;;;;;;;33.40;16.25;;;8.90;99.90;;;9.72;100.00;99269.53;5059142;28;20044;-80
2021/12/24 11:59:40;;;;;;;32.67;15.57;;;8.90;99.90;;;9.75;100.00;99261.19;5060056;28;20481;-83
2021/12/24 12:02:07;;;;;;;35.88;16.20;;;8.90;99.90;;;9.71;100.00;99265.94;5059817;28;20473;-85
2021/12/24 12:04:34;;;;;;;34.35;15.35;;;8.90;99.90;;;9.65;100.00;99261.09;5058478;28;20350;-83